sensor_id;sensor_type;location;lat;lon;timestamp;P1;durP1;ratioP1;P2;durP2;ratioP2
74320;SDS011;62738;45.772;4.804;2022-10-26T00:01:03;9.30;;;2.50;;
74320;SDS011;62738;45.772;4.804;2022-10-26T00:03:32;12.18;;;1.88;;
74320;SDS011;62738;45.772;4.804;2022-10-26T00:06:03;11.02;;;2.20;;
74320;SDS011;62738;45.772;4.804;2022-10-26T00:08:31;11.93;;;2.72;;
74320;SDS011;62738;45.772;4.804;2022-10-26T00:10:57;13.75;;;2.00;;
74320;SDS011;62738;45.772;4.804;2022-10-26T00:13:24;11.40;;;1.67;;
74320;SDS011;62738;45.772;4.804;2022-10-26T00:15:50;16.98;;;2.83;;
74320;SDS011;62738;45.772;4.804;2022-10-26T00:18:17;12.20;;;2.15;;
74320;SDS011;62738;45.772;4.804;2022-10-26T00:20:44;13.25;;;2.30;;
74320;SDS011;62738;45.772;4.804;2022-10-26T00:23:10;9.88;;;2.05;;
74320;SDS011;62738;45.772;4.804;2022-10-26T00:25:37;10.70;;;1.73;;
74320;SDS011;62738;45.772;4.804;2022-10-26T00:28:04;10.82;;;2.08;;
74320;SDS011;62738;45.772;4.804;2022-10-26T00:30:30;7.25;;;1.77;;
74320;SDS011;62738;45.772;4.804;2022-10-26T00:32:57;9.48;;;2.00;;
74320;SDS011;62738;45.772;4.804;2022-10-26T00:35:23;9.57;;;2.10;;
74320;SDS011;62738;45.772;4.804;2022-10-26T00:38:10;9.70;;;2.08;;
74320;SDS011;62738;45.772;4.804;2022-10-26T00:40:36;9.13;;;1.75;;
74320;SDS011;62738;45.772;4.804;2022-10-26T00:43:05;8.45;;;1.95;;
74320;SDS011;62738;45.772;4.804;2022-10-26T00:45:35;8.48;;;2.03;;
74320;SDS011;62738;45.772;4.804;2022-10-26T00:48:03;7.55;;;1.90;;
74320;SDS011;62738;45.772;4.804;2022-10-26T00:50:37;6.85;;;1.95;;
74320;SDS011;62738;45.772;4.804;2022-10-26T00:53:06;8.60;;;2.35;;
74320;SDS011;62738;45.772;4.804;2022-10-26T00:55:36;6.38;;;1.80;;
74320;SDS011;62738;45.772;4.804;2022-10-26T00:58:06;9.85;;;1.63;;
74320;SDS011;62738;45.772;4.804;2022-10-26T01:00:35;11.40;;;2.13;;
74320;SDS011;62738;45.772;4.804;2022-10-26T01:03:03;9.38;;;2.13;;
74320;SDS011;62738;45.772;4.804;2022-10-26T01:05:31;8.13;;;1.98;;
74320;SDS011;62738;45.772;4.804;2022-10-26T01:08:00;8.70;;;2.15;;
74320;SDS011;62738;45.772;4.804;2022-10-26T01:10:27;8.32;;;2.10;;
74320;SDS011;62738;45.772;4.804;2022-10-26T01:12:54;7.90;;;2.50;;
74320;SDS011;62738;45.772;4.804;2022-10-26T01:15:25;12.98;;;2.00;;
74320;SDS011;62738;45.772;4.804;2022-10-26T01:18:03;11.13;;;2.55;;
74320;SDS011;62738;45.772;4.804;2022-10-26T01:26:06;7.30;;;1.67;;
74320;SDS011;62738;45.772;4.804;2022-10-26T01:31:13;12.65;;;1.83;;
74320;SDS011;62738;45.772;4.804;2022-10-26T01:39:20;7.95;;;1.98;;
74320;SDS011;62738;45.772;4.804;2022-10-26T01:41:55;8.90;;;2.38;;
74320;SDS011;62738;45.772;4.804;2022-10-26T01:44:27;8.73;;;2.08;;
74320;SDS011;62738;45.772;4.804;2022-10-26T01:47:08;9.93;;;2.10;;
74320;SDS011;62738;45.772;4.804;2022-10-26T01:49:39;9.80;;;2.35;;
74320;SDS011;62738;45.772;4.804;2022-10-26T01:52:09;8.90;;;2.17;;
74320;SDS011;62738;45.772;4.804;2022-10-26T01:54:36;8.60;;;2.00;;
74320;SDS011;62738;45.772;4.804;2022-10-26T01:57:08;11.57;;;2.30;;
74320;SDS011;62738;45.772;4.804;2022-10-26T01:59:54;10.13;;;2.15;;
74320;SDS011;62738;45.772;4.804;2022-10-26T02:02:32;9.85;;;2.22;;
74320;SDS011;62738;45.772;4.804;2022-10-26T02:05:30;10.35;;;2.40;;
74320;SDS011;62738;45.772;4.804;2022-10-26T02:16:41;6.90;;;2.28;;
74320;SDS011;62738;45.772;4.804;2022-10-26T02:21:53;9.68;;;2.50;;
74320;SDS011;62738;45.772;4.804;2022-10-26T02:24:27;7.85;;;2.65;;
74320;SDS011;62738;45.772;4.804;2022-10-26T02:26:57;9.75;;;2.60;;
74320;SDS011;62738;45.772;4.804;2022-10-26T02:29:26;8.48;;;2.50;;
74320;SDS011;62738;45.772;4.804;2022-10-26T02:31:55;5.18;;;2.20;;
74320;SDS011;62738;45.772;4.804;2022-10-26T02:34:23;10.18;;;2.15;;
74320;SDS011;62738;45.772;4.804;2022-10-26T02:36:52;7.70;;;1.88;;
74320;SDS011;62738;45.772;4.804;2022-10-26T02:39:22;4.95;;;2.10;;
74320;SDS011;62738;45.772;4.804;2022-10-26T02:41:52;7.65;;;2.17;;
74320;SDS011;62738;45.772;4.804;2022-10-26T02:44:43;6.50;;;2.25;;
74320;SDS011;62738;45.772;4.804;2022-10-26T02:47:11;10.15;;;1.88;;
74320;SDS011;62738;45.772;4.804;2022-10-26T02:49:38;7.57;;;1.98;;
74320;SDS011;62738;45.772;4.804;2022-10-26T02:52:40;9.15;;;2.22;;
74320;SDS011;62738;45.772;4.804;2022-10-26T02:55:19;7.40;;;2.17;;
74320;SDS011;62738;45.772;4.804;2022-10-26T02:57:59;6.20;;;1.67;;
74320;SDS011;62738;45.772;4.804;2022-10-26T03:00:29;10.52;;;2.35;;
74320;SDS011;62738;45.772;4.804;2022-10-26T03:02:57;9.63;;;2.30;;
74320;SDS011;62738;45.772;4.804;2022-10-26T03:05:25;9.23;;;2.40;;
74320;SDS011;62738;45.772;4.804;2022-10-26T03:07:53;7.38;;;1.85;;
74320;SDS011;62738;45.772;4.804;2022-10-26T03:10:21;8.13;;;2.10;;
74320;SDS011;62738;45.772;4.804;2022-10-26T03:12:48;7.45;;;2.60;;
74320;SDS011;62738;45.772;4.804;2022-10-26T03:15:15;9.48;;;2.67;;
74320;SDS011;62738;45.772;4.804;2022-10-26T03:17:42;10.65;;;2.30;;
74320;SDS011;62738;45.772;4.804;2022-10-26T03:20:09;10.48;;;2.25;;
74320;SDS011;62738;45.772;4.804;2022-10-26T03:22:36;7.65;;;2.17;;
74320;SDS011;62738;45.772;4.804;2022-10-26T03:25:02;10.40;;;2.60;;
74320;SDS011;62738;45.772;4.804;2022-10-26T03:27:29;7.78;;;2.45;;
74320;SDS011;62738;45.772;4.804;2022-10-26T03:29:56;9.10;;;2.72;;
74320;SDS011;62738;45.772;4.804;2022-10-26T03:32:23;11.20;;;2.42;;
74320;SDS011;62738;45.772;4.804;2022-10-26T03:34:49;9.45;;;2.22;;
74320;SDS011;62738;45.772;4.804;2022-10-26T03:37:16;8.15;;;2.35;;
74320;SDS011;62738;45.772;4.804;2022-10-26T03:39:42;9.23;;;2.40;;
74320;SDS011;62738;45.772;4.804;2022-10-26T03:42:09;7.00;;;2.20;;
74320;SDS011;62738;45.772;4.804;2022-10-26T03:44:36;8.45;;;2.65;;
74320;SDS011;62738;45.772;4.804;2022-10-26T03:47:02;9.25;;;2.92;;
74320;SDS011;62738;45.772;4.804;2022-10-26T03:49:29;7.10;;;2.33;;
74320;SDS011;62738;45.772;4.804;2022-10-26T03:51:55;12.57;;;2.55;;
74320;SDS011;62738;45.772;4.804;2022-10-26T03:54:22;10.40;;;2.35;;
74320;SDS011;62738;45.772;4.804;2022-10-26T03:56:48;5.95;;;2.15;;
74320;SDS011;62738;45.772;4.804;2022-10-26T03:59:20;8.35;;;2.40;;
74320;SDS011;62738;45.772;4.804;2022-10-26T04:01:46;6.28;;;2.50;;
74320;SDS011;62738;45.772;4.804;2022-10-26T04:04:13;9.90;;;2.50;;
74320;SDS011;62738;45.772;4.804;2022-10-26T04:06:40;8.68;;;3.03;;
74320;SDS011;62738;45.772;4.804;2022-10-26T04:09:06;11.15;;;2.65;;
74320;SDS011;62738;45.772;4.804;2022-10-26T04:11:33;8.77;;;2.60;;
74320;SDS011;62738;45.772;4.804;2022-10-26T04:14:00;7.95;;;2.65;;
74320;SDS011;62738;45.772;4.804;2022-10-26T04:16:26;8.00;;;2.50;;
74320;SDS011;62738;45.772;4.804;2022-10-26T04:18:58;12.05;;;2.40;;
74320;SDS011;62738;45.772;4.804;2022-10-26T04:21:25;9.40;;;2.35;;
74320;SDS011;62738;45.772;4.804;2022-10-26T04:23:51;7.05;;;2.42;;
74320;SDS011;62738;45.772;4.804;2022-10-26T04:26:18;16.88;;;3.42;;
74320;SDS011;62738;45.772;4.804;2022-10-26T04:28:45;6.25;;;2.50;;
74320;SDS011;62738;45.772;4.804;2022-10-26T04:31:11;8.60;;;2.72;;
74320;SDS011;62738;45.772;4.804;2022-10-26T04:33:38;8.73;;;2.40;;
74320;SDS011;62738;45.772;4.804;2022-10-26T04:36:05;8.18;;;2.22;;
74320;SDS011;62738;45.772;4.804;2022-10-26T04:38:31;9.07;;;2.47;;
74320;SDS011;62738;45.772;4.804;2022-10-26T04:40:58;6.97;;;2.50;;
74320;SDS011;62738;45.772;4.804;2022-10-26T04:43:24;8.38;;;2.83;;
74320;SDS011;62738;45.772;4.804;2022-10-26T04:45:57;8.75;;;2.58;;
74320;SDS011;62738;45.772;4.804;2022-10-26T04:48:23;10.40;;;2.53;;
74320;SDS011;62738;45.772;4.804;2022-10-26T04:50:58;9.13;;;2.47;;
74320;SDS011;62738;45.772;4.804;2022-10-26T04:53:26;10.18;;;2.88;;
74320;SDS011;62738;45.772;4.804;2022-10-26T04:55:56;9.80;;;2.53;;
74320;SDS011;62738;45.772;4.804;2022-10-26T05:00:50;9.90;;;2.75;;
74320;SDS011;62738;45.772;4.804;2022-10-26T05:03:17;9.77;;;2.55;;
74320;SDS011;62738;45.772;4.804;2022-10-26T05:05:43;10.77;;;2.90;;
74320;SDS011;62738;45.772;4.804;2022-10-26T05:08:10;9.10;;;2.50;;
74320;SDS011;62738;45.772;4.804;2022-10-26T05:10:36;9.75;;;2.80;;
74320;SDS011;62738;45.772;4.804;2022-10-26T05:13:03;7.97;;;2.80;;
74320;SDS011;62738;45.772;4.804;2022-10-26T05:15:29;12.15;;;3.28;;
74320;SDS011;62738;45.772;4.804;2022-10-26T05:20:24;8.43;;;3.40;;
74320;SDS011;62738;45.772;4.804;2022-10-26T05:22:56;8.65;;;2.90;;
74320;SDS011;62738;45.772;4.804;2022-10-26T05:25:24;10.90;;;2.80;;
74320;SDS011;62738;45.772;4.804;2022-10-26T05:27:51;7.22;;;2.70;;
74320;SDS011;62738;45.772;4.804;2022-10-26T05:30:18;9.43;;;2.90;;
74320;SDS011;62738;45.772;4.804;2022-10-26T05:32:48;9.70;;;3.38;;
74320;SDS011;62738;45.772;4.804;2022-10-26T05:35:19;17.25;;;3.38;;
74320;SDS011;62738;45.772;4.804;2022-10-26T05:37:45;12.27;;;2.80;;
74320;SDS011;62738;45.772;4.804;2022-10-26T05:40:12;9.13;;;3.45;;
74320;SDS011;62738;45.772;4.804;2022-10-26T05:42:38;12.80;;;3.47;;
74320;SDS011;62738;45.772;4.804;2022-10-26T05:45:05;6.95;;;3.10;;
74320;SDS011;62738;45.772;4.804;2022-10-26T05:47:32;11.38;;;3.33;;
74320;SDS011;62738;45.772;4.804;2022-10-26T05:50:02;11.90;;;3.58;;
74320;SDS011;62738;45.772;4.804;2022-10-26T05:52:29;13.23;;;3.45;;
74320;SDS011;62738;45.772;4.804;2022-10-26T05:54:56;11.82;;;3.58;;
74320;SDS011;62738;45.772;4.804;2022-10-26T05:57:22;14.32;;;4.13;;
74320;SDS011;62738;45.772;4.804;2022-10-26T05:59:49;11.07;;;3.20;;
74320;SDS011;62738;45.772;4.804;2022-10-26T06:02:29;14.57;;;3.40;;
74320;SDS011;62738;45.772;4.804;2022-10-26T06:05:02;13.68;;;3.05;;
74320;SDS011;62738;45.772;4.804;2022-10-26T06:07:30;9.35;;;3.58;;
74320;SDS011;62738;45.772;4.804;2022-10-26T06:09:58;7.72;;;3.22;;
74320;SDS011;62738;45.772;4.804;2022-10-26T06:12:25;8.55;;;3.63;;
74320;SDS011;62738;45.772;4.804;2022-10-26T06:14:52;11.63;;;3.67;;
74320;SDS011;62738;45.772;4.804;2022-10-26T06:17:29;13.93;;;3.38;;
74320;SDS011;62738;45.772;4.804;2022-10-26T06:23:18;12.82;;;4.10;;
74320;SDS011;62738;45.772;4.804;2022-10-26T06:29:13;11.80;;;3.38;;
74320;SDS011;62738;45.772;4.804;2022-10-26T06:31:25;10.68;;;3.33;;
74320;SDS011;62738;45.772;4.804;2022-10-26T06:33:53;15.07;;;3.60;;
74320;SDS011;62738;45.772;4.804;2022-10-26T06:36:26;9.50;;;3.33;;
74320;SDS011;62738;45.772;4.804;2022-10-26T06:39:01;14.52;;;4.90;;
74320;SDS011;62738;45.772;4.804;2022-10-26T06:43:58;10.95;;;3.45;;
74320;SDS011;62738;45.772;4.804;2022-10-26T06:49:31;7.65;;;2.88;;
74320;SDS011;62738;45.772;4.804;2022-10-26T06:57:15;10.73;;;3.67;;
74320;SDS011;62738;45.772;4.804;2022-10-26T06:59:45;8.98;;;3.25;;
74320;SDS011;62738;45.772;4.804;2022-10-26T07:02:15;13.13;;;3.95;;
74320;SDS011;62738;45.772;4.804;2022-10-26T07:04:43;8.88;;;3.72;;
74320;SDS011;62738;45.772;4.804;2022-10-26T07:07:11;14.80;;;3.92;;
74320;SDS011;62738;45.772;4.804;2022-10-26T07:09:40;10.65;;;3.63;;
74320;SDS011;62738;45.772;4.804;2022-10-26T07:12:07;11.90;;;4.03;;
74320;SDS011;62738;45.772;4.804;2022-10-26T07:14:34;16.77;;;4.45;;
74320;SDS011;62738;45.772;4.804;2022-10-26T07:17:00;16.23;;;4.20;;
74320;SDS011;62738;45.772;4.804;2022-10-26T07:19:27;10.35;;;3.80;;
74320;SDS011;62738;45.772;4.804;2022-10-26T07:21:54;13.75;;;4.03;;
74320;SDS011;62738;45.772;4.804;2022-10-26T07:24:22;14.20;;;3.53;;
74320;SDS011;62738;45.772;4.804;2022-10-26T07:26:49;13.52;;;4.03;;
74320;SDS011;62738;45.772;4.804;2022-10-26T07:29:16;11.15;;;4.10;;
74320;SDS011;62738;45.772;4.804;2022-10-26T07:31:43;12.18;;;4.07;;
74320;SDS011;62738;45.772;4.804;2022-10-26T07:34:10;13.18;;;4.82;;
74320;SDS011;62738;45.772;4.804;2022-10-26T07:36:36;12.00;;;5.03;;
74320;SDS011;62738;45.772;4.804;2022-10-26T07:39:03;13.13;;;4.93;;
74320;SDS011;62738;45.772;4.804;2022-10-26T07:41:30;16.52;;;4.93;;
74320;SDS011;62738;45.772;4.804;2022-10-26T07:43:57;23.42;;;5.13;;
74320;SDS011;62738;45.772;4.804;2022-10-26T07:46:23;32.67;;;8.90;;
74320;SDS011;62738;45.772;4.804;2022-10-26T07:48:50;46.50;;;14.07;;
74320;SDS011;62738;45.772;4.804;2022-10-26T07:51:17;28.25;;;8.27;;
74320;SDS011;62738;45.772;4.804;2022-10-26T07:53:44;25.58;;;8.70;;
74320;SDS011;62738;45.772;4.804;2022-10-26T07:56:11;22.88;;;6.90;;
74320;SDS011;62738;45.772;4.804;2022-10-26T07:58:38;24.85;;;6.13;;
74320;SDS011;62738;45.772;4.804;2022-10-26T08:01:06;16.85;;;5.85;;
74320;SDS011;62738;45.772;4.804;2022-10-26T08:03:38;17.77;;;5.70;;
74320;SDS011;62738;45.772;4.804;2022-10-26T08:06:04;16.67;;;5.22;;
74320;SDS011;62738;45.772;4.804;2022-10-26T08:08:32;21.70;;;6.65;;
74320;SDS011;62738;45.772;4.804;2022-10-26T08:10:59;20.80;;;6.03;;
74320;SDS011;62738;45.772;4.804;2022-10-26T08:13:26;18.35;;;5.72;;
74320;SDS011;62738;45.772;4.804;2022-10-26T08:15:56;21.80;;;5.95;;
74320;SDS011;62738;45.772;4.804;2022-10-26T08:18:24;22.67;;;5.72;;
74320;SDS011;62738;45.772;4.804;2022-10-26T08:20:51;24.35;;;7.05;;
74320;SDS011;62738;45.772;4.804;2022-10-26T08:23:17;21.23;;;6.03;;
74320;SDS011;62738;45.772;4.804;2022-10-26T08:25:44;18.92;;;6.28;;
74320;SDS011;62738;45.772;4.804;2022-10-26T08:28:10;18.77;;;5.78;;
74320;SDS011;62738;45.772;4.804;2022-10-26T08:30:37;21.17;;;5.53;;
74320;SDS011;62738;45.772;4.804;2022-10-26T08:33:05;20.83;;;5.97;;
74320;SDS011;62738;45.772;4.804;2022-10-26T08:35:32;26.95;;;6.03;;
74320;SDS011;62738;45.772;4.804;2022-10-26T08:37:59;18.05;;;5.72;;
74320;SDS011;62738;45.772;4.804;2022-10-26T08:40:30;20.20;;;5.35;;
74320;SDS011;62738;45.772;4.804;2022-10-26T08:43:00;22.70;;;5.78;;
74320;SDS011;62738;45.772;4.804;2022-10-26T08:45:40;16.92;;;5.65;;
74320;SDS011;62738;45.772;4.804;2022-10-26T08:48:14;19.63;;;5.55;;
74320;SDS011;62738;45.772;4.804;2022-10-26T08:56:38;26.15;;;5.78;;
74320;SDS011;62738;45.772;4.804;2022-10-26T09:02:16;24.35;;;5.80;;
74320;SDS011;62738;45.772;4.804;2022-10-26T09:04:43;19.40;;;5.85;;
74320;SDS011;62738;45.772;4.804;2022-10-26T09:12:56;26.15;;;6.22;;
74320;SDS011;62738;45.772;4.804;2022-10-26T09:15:47;22.05;;;6.35;;
74320;SDS011;62738;45.772;4.804;2022-10-26T09:26:30;21.65;;;6.53;;
74320;SDS011;62738;45.772;4.804;2022-10-26T09:29:02;22.30;;;6.45;;
74320;SDS011;62738;45.772;4.804;2022-10-26T09:31:34;23.85;;;6.28;;
74320;SDS011;62738;45.772;4.804;2022-10-26T09:34:13;26.50;;;6.25;;
74320;SDS011;62738;45.772;4.804;2022-10-26T09:37:08;22.42;;;6.25;;
74320;SDS011;62738;45.772;4.804;2022-10-26T09:40:03;22.35;;;6.03;;
74320;SDS011;62738;45.772;4.804;2022-10-26T09:45:41;24.98;;;5.88;;
74320;SDS011;62738;45.772;4.804;2022-10-26T09:48:19;23.42;;;5.60;;
74320;SDS011;62738;45.772;4.804;2022-10-26T09:50:52;18.98;;;5.60;;
74320;SDS011;62738;45.772;4.804;2022-10-26T09:53:19;23.83;;;6.00;;
74320;SDS011;62738;45.772;4.804;2022-10-26T09:55:46;21.27;;;5.30;;
74320;SDS011;62738;45.772;4.804;2022-10-26T09:58:16;16.50;;;4.82;;
74320;SDS011;62738;45.772;4.804;2022-10-26T10:00:46;21.00;;;5.93;;
74320;SDS011;62738;45.772;4.804;2022-10-26T10:03:29;18.17;;;5.82;;
74320;SDS011;62738;45.772;4.804;2022-10-26T10:14:38;30.90;;;6.40;;
74320;SDS011;62738;45.772;4.804;2022-10-26T10:17:06;25.58;;;6.07;;
74320;SDS011;62738;45.772;4.804;2022-10-26T10:19:46;18.60;;;6.13;;
74320;SDS011;62738;45.772;4.804;2022-10-26T10:24:42;21.55;;;5.85;;
74320;SDS011;62738;45.772;4.804;2022-10-26T10:27:19;24.10;;;5.30;;
74320;SDS011;62738;45.772;4.804;2022-10-26T10:29:47;21.10;;;5.35;;
74320;SDS011;62738;45.772;4.804;2022-10-26T10:32:22;24.08;;;5.45;;
74320;SDS011;62738;45.772;4.804;2022-10-26T10:34:51;22.73;;;5.80;;
74320;SDS011;62738;45.772;4.804;2022-10-26T10:37:38;15.65;;;5.20;;
74320;SDS011;62738;45.772;4.804;2022-10-26T10:40:16;15.98;;;5.10;;
74320;SDS011;62738;45.772;4.804;2022-10-26T10:42:46;24.08;;;5.45;;
74320;SDS011;62738;45.772;4.804;2022-10-26T10:45:24;22.25;;;5.07;;
74320;SDS011;62738;45.772;4.804;2022-10-26T10:48:01;20.70;;;4.97;;
74320;SDS011;62738;45.772;4.804;2022-10-26T10:50:58;19.63;;;4.50;;
74320;SDS011;62738;45.772;4.804;2022-10-26T10:56:21;16.23;;;4.57;;
74320;SDS011;62738;45.772;4.804;2022-10-26T11:01:58;20.40;;;4.53;;
74320;SDS011;62738;45.772;4.804;2022-10-26T11:07:10;15.13;;;4.50;;
74320;SDS011;62738;45.772;4.804;2022-10-26T11:09:38;18.77;;;4.50;;
74320;SDS011;62738;45.772;4.804;2022-10-26T11:12:29;15.93;;;4.72;;
74320;SDS011;62738;45.772;4.804;2022-10-26T11:17:51;16.05;;;4.32;;
74320;SDS011;62738;45.772;4.804;2022-10-26T11:20:23;14.32;;;3.85;;
74320;SDS011;62738;45.772;4.804;2022-10-26T11:25:41;18.15;;;5.00;;
74320;SDS011;62738;45.772;4.804;2022-10-26T11:28:16;17.77;;;4.45;;
74320;SDS011;62738;45.772;4.804;2022-10-26T11:30:49;15.90;;;4.32;;
74320;SDS011;62738;45.772;4.804;2022-10-26T11:33:22;13.20;;;4.15;;
74320;SDS011;62738;45.772;4.804;2022-10-26T11:35:52;13.82;;;3.45;;
74320;SDS011;62738;45.772;4.804;2022-10-26T11:38:43;9.38;;;3.22;;
74320;SDS011;62738;45.772;4.804;2022-10-26T11:44:12;10.10;;;3.15;;
74320;SDS011;62738;45.772;4.804;2022-10-26T11:46:59;11.95;;;3.28;;
74320;SDS011;62738;45.772;4.804;2022-10-26T11:49:33;10.63;;;2.85;;
74320;SDS011;62738;45.772;4.804;2022-10-26T11:52:15;12.18;;;2.60;;
74320;SDS011;62738;45.772;4.804;2022-10-26T11:54:57;12.30;;;2.67;;
74320;SDS011;62738;45.772;4.804;2022-10-26T11:57:33;8.05;;;2.42;;
74320;SDS011;62738;45.772;4.804;2022-10-26T12:00:03;5.35;;;2.33;;
74320;SDS011;62738;45.772;4.804;2022-10-26T12:02:35;10.85;;;2.35;;
74320;SDS011;62738;45.772;4.804;2022-10-26T12:07:46;14.68;;;3.10;;
74320;SDS011;62738;45.772;4.804;2022-10-26T12:10:22;14.50;;;2.97;;
74320;SDS011;62738;45.772;4.804;2022-10-26T12:12:50;10.85;;;2.65;;
74320;SDS011;62738;45.772;4.804;2022-10-26T12:21:20;14.48;;;3.15;;
74320;SDS011;62738;45.772;4.804;2022-10-26T12:34:14;13.07;;;3.03;;
74320;SDS011;62738;45.772;4.804;2022-10-26T12:37:21;9.98;;;2.50;;
74320;SDS011;62738;45.772;4.804;2022-10-26T12:40:04;9.82;;;2.42;;
74320;SDS011;62738;45.772;4.804;2022-10-26T12:45:43;6.45;;;1.60;;
74320;SDS011;62738;45.772;4.804;2022-10-26T12:48:54;9.48;;;2.25;;
74320;SDS011;62738;45.772;4.804;2022-10-26T12:53:57;8.63;;;2.00;;
74320;SDS011;62738;45.772;4.804;2022-10-26T12:59:34;9.43;;;1.85;;
74320;SDS011;62738;45.772;4.804;2022-10-26T13:04:43;6.40;;;1.42;;
74320;SDS011;62738;45.772;4.804;2022-10-26T13:07:28;8.38;;;1.70;;
74320;SDS011;62738;45.772;4.804;2022-10-26T13:12:52;7.95;;;2.13;;
74320;SDS011;62738;45.772;4.804;2022-10-26T13:18:00;9.32;;;1.80;;
74320;SDS011;62738;45.772;4.804;2022-10-26T13:23:44;10.60;;;1.70;;
74320;SDS011;62738;45.772;4.804;2022-10-26T13:26:14;9.07;;;2.03;;
74320;SDS011;62738;45.772;4.804;2022-10-26T13:28:54;11.25;;;2.38;;
74320;SDS011;62738;45.772;4.804;2022-10-26T13:33:57;11.75;;;2.63;;
74320;SDS011;62738;45.772;4.804;2022-10-26T13:36:41;12.15;;;3.08;;
74320;SDS011;62738;45.772;4.804;2022-10-26T13:39:16;12.38;;;2.58;;
74320;SDS011;62738;45.772;4.804;2022-10-26T13:41:46;11.80;;;2.40;;
74320;SDS011;62738;45.772;4.804;2022-10-26T13:50:31;7.65;;;2.35;;
74320;SDS011;62738;45.772;4.804;2022-10-26T13:53:06;10.20;;;2.13;;
74320;SDS011;62738;45.772;4.804;2022-10-26T13:55:50;12.85;;;2.63;;
74320;SDS011;62738;45.772;4.804;2022-10-26T13:58:24;10.82;;;2.50;;
74320;SDS011;62738;45.772;4.804;2022-10-26T14:01:20;10.40;;;2.42;;
74320;SDS011;62738;45.772;4.804;2022-10-26T14:03:48;16.23;;;3.10;;
74320;SDS011;62738;45.772;4.804;2022-10-26T14:08:55;9.93;;;2.35;;
74320;SDS011;62738;45.772;4.804;2022-10-26T14:12:08;11.93;;;2.53;;
74320;SDS011;62738;45.772;4.804;2022-10-26T14:16:57;13.18;;;2.55;;
74320;SDS011;62738;45.772;4.804;2022-10-26T14:19:26;9.00;;;2.20;;
74320;SDS011;62738;45.772;4.804;2022-10-26T14:21:55;12.23;;;2.88;;
74320;SDS011;62738;45.772;4.804;2022-10-26T14:24:26;11.25;;;2.33;;
74320;SDS011;62738;45.772;4.804;2022-10-26T14:27:15;7.13;;;2.13;;
74320;SDS011;62738;45.772;4.804;2022-10-26T14:29:43;12.70;;;2.60;;
74320;SDS011;62738;45.772;4.804;2022-10-26T14:34:54;13.15;;;2.90;;
74320;SDS011;62738;45.772;4.804;2022-10-26T14:37:23;10.20;;;2.40;;
74320;SDS011;62738;45.772;4.804;2022-10-26T14:39:55;8.70;;;2.15;;
74320;SDS011;62738;45.772;4.804;2022-10-26T14:42:27;13.82;;;2.90;;
74320;SDS011;62738;45.772;4.804;2022-10-26T14:44:56;14.98;;;2.83;;
74320;SDS011;62738;45.772;4.804;2022-10-26T14:47:33;16.67;;;2.90;;
74320;SDS011;62738;45.772;4.804;2022-10-26T14:50:01;9.77;;;2.63;;
74320;SDS011;62738;45.772;4.804;2022-10-26T14:52:32;17.15;;;3.03;;
74320;SDS011;62738;45.772;4.804;2022-10-26T14:55:14;12.10;;;2.63;;
74320;SDS011;62738;45.772;4.804;2022-10-26T14:57:42;13.73;;;3.42;;
74320;SDS011;62738;45.772;4.804;2022-10-26T15:00:14;11.45;;;2.80;;
74320;SDS011;62738;45.772;4.804;2022-10-26T15:02:47;12.88;;;2.95;;
74320;SDS011;62738;45.772;4.804;2022-10-26T15:05:27;10.82;;;2.45;;
74320;SDS011;62738;45.772;4.804;2022-10-26T15:08:01;8.50;;;2.15;;
74320;SDS011;62738;45.772;4.804;2022-10-26T15:13:46;16.98;;;3.03;;
74320;SDS011;62738;45.772;4.804;2022-10-26T15:16:08;9.55;;;2.33;;
74320;SDS011;62738;45.772;4.804;2022-10-26T15:18:42;13.27;;;2.75;;
74320;SDS011;62738;45.772;4.804;2022-10-26T15:23:46;14.52;;;2.80;;
74320;SDS011;62738;45.772;4.804;2022-10-26T15:26:13;13.30;;;3.20;;
74320;SDS011;62738;45.772;4.804;2022-10-26T15:28:40;12.18;;;2.70;;
74320;SDS011;62738;45.772;4.804;2022-10-26T15:33:35;10.38;;;2.80;;
74320;SDS011;62738;45.772;4.804;2022-10-26T15:38:33;9.43;;;3.17;;
74320;SDS011;62738;45.772;4.804;2022-10-26T15:41:00;12.20;;;3.35;;
74320;SDS011;62738;45.772;4.804;2022-10-26T15:43:28;16.70;;;3.38;;
74320;SDS011;62738;45.772;4.804;2022-10-26T15:45:55;11.27;;;4.18;;
74320;SDS011;62738;45.772;4.804;2022-10-26T15:48:22;16.27;;;4.28;;
74320;SDS011;62738;45.772;4.804;2022-10-26T15:50:52;13.65;;;4.22;;
74320;SDS011;62738;45.772;4.804;2022-10-26T15:53:28;17.15;;;4.03;;
74320;SDS011;62738;45.772;4.804;2022-10-26T15:55:56;15.82;;;4.20;;
74320;SDS011;62738;45.772;4.804;2022-10-26T15:58:24;14.07;;;3.78;;
74320;SDS011;62738;45.772;4.804;2022-10-26T16:00:52;15.07;;;3.55;;
74320;SDS011;62738;45.772;4.804;2022-10-26T16:03:19;22.33;;;4.00;;
74320;SDS011;62738;45.772;4.804;2022-10-26T16:05:49;12.57;;;3.30;;
74320;SDS011;62738;45.772;4.804;2022-10-26T16:08:22;15.15;;;3.30;;
74320;SDS011;62738;45.772;4.804;2022-10-26T16:10:49;8.93;;;3.15;;
74320;SDS011;62738;45.772;4.804;2022-10-26T16:13:16;7.38;;;2.70;;
74320;SDS011;62738;45.772;4.804;2022-10-26T16:15:43;12.38;;;3.03;;
74320;SDS011;62738;45.772;4.804;2022-10-26T16:18:10;12.85;;;3.08;;
74320;SDS011;62738;45.772;4.804;2022-10-26T16:20:36;13.73;;;5.20;;
74320;SDS011;62738;45.772;4.804;2022-10-26T16:23:03;15.57;;;4.35;;
74320;SDS011;62738;45.772;4.804;2022-10-26T16:25:35;13.65;;;3.50;;
74320;SDS011;62738;45.772;4.804;2022-10-26T16:28:07;13.20;;;2.88;;
74320;SDS011;62738;45.772;4.804;2022-10-26T16:30:36;11.88;;;3.30;;
74320;SDS011;62738;45.772;4.804;2022-10-26T16:33:02;14.70;;;5.03;;
74320;SDS011;62738;45.772;4.804;2022-10-26T16:35:29;13.70;;;3.80;;
74320;SDS011;62738;45.772;4.804;2022-10-26T16:37:56;13.38;;;3.70;;
74320;SDS011;62738;45.772;4.804;2022-10-26T16:40:22;9.00;;;3.45;;
74320;SDS011;62738;45.772;4.804;2022-10-26T16:42:49;14.38;;;3.30;;
74320;SDS011;62738;45.772;4.804;2022-10-26T16:45:16;13.98;;;3.45;;
74320;SDS011;62738;45.772;4.804;2022-10-26T16:47:43;10.18;;;3.45;;
74320;SDS011;62738;45.772;4.804;2022-10-26T16:50:10;13.23;;;3.30;;
74320;SDS011;62738;45.772;4.804;2022-10-26T16:52:38;12.65;;;4.20;;
74320;SDS011;62738;45.772;4.804;2022-10-26T16:55:06;16.20;;;5.25;;
74320;SDS011;62738;45.772;4.804;2022-10-26T16:57:34;17.05;;;4.78;;
74320;SDS011;62738;45.772;4.804;2022-10-26T17:00:02;17.48;;;6.93;;
74320;SDS011;62738;45.772;4.804;2022-10-26T17:02:29;15.60;;;5.43;;
74320;SDS011;62738;45.772;4.804;2022-10-26T17:04:56;15.23;;;5.13;;
74320;SDS011;62738;45.772;4.804;2022-10-26T17:07:29;16.02;;;5.10;;
74320;SDS011;62738;45.772;4.804;2022-10-26T17:09:56;16.50;;;6.07;;
74320;SDS011;62738;45.772;4.804;2022-10-26T17:12:22;15.18;;;4.25;;
74320;SDS011;62738;45.772;4.804;2022-10-26T17:14:49;13.88;;;4.05;;
74320;SDS011;62738;45.772;4.804;2022-10-26T17:17:16;13.75;;;4.45;;
74320;SDS011;62738;45.772;4.804;2022-10-26T17:19:43;12.30;;;4.18;;
74320;SDS011;62738;45.772;4.804;2022-10-26T17:22:09;16.50;;;4.18;;
74320;SDS011;62738;45.772;4.804;2022-10-26T17:24:36;15.40;;;4.68;;
74320;SDS011;62738;45.772;4.804;2022-10-26T17:27:03;15.85;;;4.13;;
74320;SDS011;62738;45.772;4.804;2022-10-26T17:29:30;16.83;;;4.78;;
74320;SDS011;62738;45.772;4.804;2022-10-26T17:31:56;17.25;;;4.65;;
74320;SDS011;62738;45.772;4.804;2022-10-26T17:34:23;22.77;;;6.07;;
74320;SDS011;62738;45.772;4.804;2022-10-26T17:36:51;22.38;;;6.00;;
74320;SDS011;62738;45.772;4.804;2022-10-26T17:39:17;19.02;;;5.38;;
74320;SDS011;62738;45.772;4.804;2022-10-26T17:41:44;18.50;;;4.53;;
74320;SDS011;62738;45.772;4.804;2022-10-26T17:44:11;16.33;;;5.00;;
74320;SDS011;62738;45.772;4.804;2022-10-26T17:46:38;20.48;;;5.47;;